Darling, MS (38623)

12:41 PM CDT en Julio 22, 2014 (GMT -0500)
BHQ (KMSCOMO2) Alt 367 ft | 34.52 °N, 89.94 °W | Change Station

Current weather conditions updated 10 minutes ago

Nublado
Nublado
87.3 ° F
Sensación térmica 95 ° F
N
0.0
Viento Variable Viento desde Este

Hoy se prevé una temperatura muy similar a la de ayer.

Hoy
Alta -- | Baja -- ° F
--% Posibilidad de precipitaciones
Ayer
Alta -- | Baja -- ° F
Precip. -- pul
6:04 AM 8:09 PM
Creciente menguante, 16% visible
Presión 30.09 pul
Visibilidad 10.0 Millas
Nubes Despejado
Índice de calor 95 ° F
Punto de rocío 74 ° F
Humedad 64%
Precipitaciones 0.00 pul
Espesor de la nieve No disponible.
UV 12 de una escala de 12
Polen 4.50 de una escala de 12
Calidad del aire No disponible.
Flu Activity No Activity
METAR KUTA 221735Z AUTO 00000KT 10SM CLR 30/20 A3009 RMK AO2

More Conditions Fewer Conditions

Presión 30.09 pul
Visibilidad 10.0 Millas
Nubes Despejado
Índice de calor 95 ° F
Punto de rocío 74 ° F
Humedad 64%
Precipitaciones 0.00 pul
Espesor de la nieve No disponible.
UV 12 de una escala de 12
Polen 4.50 de una escala de 12
Calidad del aire No disponible.
Flu Activity No Activity
METAR KUTA 221735Z AUTO 00000KT 10SM CLR 30/20 A3009 RMK AO2

More Conditions Fewer Conditions

10-Day Weather Forecast

LIGHTNING

Thunderstorms are forecast for your area. Cloud conditions might be right for producing strikes in the next few days, though lightning itself cannot be forecasted.

Lightning is a visible electrical discharge produced by a thunderstorm, based on the build up of oppositely charged particles within a cloud and from cloud to ground.

Know how to stay safe in a lightning storm.

Check out these Lightning WunderPhotos!

Almanac

Astronomía

Jul. 22, 2014 Salida Puesta
Hora real 6:04 AM CDT 8:09 PM CDT
Crepúsculo civil 5:35 AM CDT 8:38 PM CDT
Crepúsculo náutico 5:01 AM CDT 9:12 PM CDT
Crepúsculo astronómico 4:24 AM CDT 9:49 PM CDT
Luna 2:35 AM CDT 4:48 PM CDT
Horas de luz 15h 02m
Horas de luz
14h 05m
Tomorrow will be 1m 21s shorter.
Creciente menguante, 16% of the Moon is Illuminated
Hoy
Creciente menguante
Jul 26
Nueva
Ago 3
Cuarto creciente
Ago 10
Luna llena
Ago 17
Cuarto menguante

Extremos de hoy

Máximos del estado Bajos del estado

Community

WunderPhotos

Upload Photos

1,736,305 ¡fotos cargadas!

Nearby

Grosos de nieve

Estación Profundido Altura
No tenemos constancia de nieve nueva.

Actividad de terremotos

Ciudad Distance Mag. Tiempo y dato
No hay informes recientes de la actividad sísmica.
Magnitud mínima muestra es 2,5.

Temperaturas de aguas costeras

Lugar Temperatura
Sin partes meteorológicos de las estaciones

Estaciones meteorológicas cercanas

Ubicación de la estación Temp. Índice de calor Punto de rocío Humedad Viento Precip. Alt Actualizado Tipo
BHQ, Como, MS 87.3 ° F 95 ° F 74 ° F 64% Este  a  0.0 mph - / hr 367 ft 12:30 PM CDT Normal

Show More Stations Show Fewer Stations